Portada
METAR-TAF:

METAR-TAF

Aeroports :

Aeroport de Madrid-Barajas

Madrid, Espanya

latitud: 40-27N, longitud: 003-33W, altitud: 609 m

Observació

L'informe es va fer fa 13 minuts, a les 08:00 UTC
Vent 5 kt del Nord/Nord-Est, variant entre Nord/Nord-Oest i Est
Temperatura 20°C
Humitat 53%
Pressió 1021 hPa
Visibilitat 10 km o més
Escasses núvols a una alçada de 3800 ft

METAR: LEMD 180800Z 03005KT 340V080 9999 FEW038 20/10 Q1021 NOSIG

Hora: 10:13 (08:13 UTC)

Pronòstic

L'informe es va fer fa 3 hores i 13 minuts, a les 05:00 UTC
Pronòstic vàlid del 18 a les 06 UTC al 19 a les 12 UTC
Vent 7 kt del Nord/Nord-Est
Visibilitat 10 km o més
sense núvols per sota de 1500 mi sense presència de cumulonimbus.

TAF: LEMD 180500Z 1806/1912 03007KT CAVOK TX32/1815Z TN16/1806Z

Observacions i pronòstics meteorològics de més de 4000 aeroports (METAR i TAF).

Les estacions disponibles són els punts grocs i vermells al mapa.

Posi el ratolí al punt desitjat per veure el nom de l'estació.

Feu clic per veure les observacions i els pronòstics meteorològics.

Per canviar el mapa: feu clic els botons verds amb una creu de color negre per apropar; al botó verd amb un guió per allunyar la imatge; o en les fletxes verdes per a mapes adjacents.


METAR-TAF: